Погода Ошикангона 2 недели

Очикото, Намибия

17 - 30 июня
  • 17июня
    Сегодня
    +8°
    +27°
    Ясно и безоблачно
    ВремяПогодаТемператураВлажностьДавлениеВетер, м/сВероятность осадков
    02:00Ясно и безоблачно+12°C22 %670 мм3.9 м/с2 %
    05:00Ясно и безоблачно+10°C27 %670 мм3.7 м/с2 %
    08:00Ясно и безоблачно+9°C33 %672 мм3.9 м/с2 %
    11:00Ясно и безоблачно+21°C20 %675 мм4.3 м/с2 %
    14:00Ясно и безоблачно+26°C11 %673 мм2.6 м/с2 %
    17:00Ясно и безоблачно+27°C10 %673 мм0.7 м/с2 %
    20:00Ясно и безоблачно+18°C16 %671 мм2.8 м/с2 %
    23:00Ясно и безоблачно+16°C22 %672 мм2.9 м/с2 %
  • 18июня
    Вторник
    +10°
    +28°
    Ясно и безоблачно
    ВремяПогодаТемператураВлажностьДавлениеВетер, м/сВероятность осадков
    02:00Ясно и безоблачно+13°C24 %670 мм2.8 м/с2 %
    05:00Ясно и безоблачно+10°C26 %669 мм2.6 м/с2 %
    08:00Ясно и безоблачно+10°C31 %671 мм2.8 м/с2 %
    11:00Ясно и безоблачно+22°C22 %674 мм3.4 м/с2 %
    14:00Ясно и безоблачно+27°C13 %673 мм2.1 м/с2 %
    17:00Ясно и безоблачно+28°C12 %672 мм1.5 м/с2 %
    20:00Ясно и безоблачно+20°C20 %671 мм2.7 м/с2 %
    23:00Ясно и безоблачно+17°C27 %671 мм2.8 м/с2 %
  • 19июня
    Среда
    +11°
    +29°
    Ясно и безоблачно
    ВремяПогодаТемператураВлажностьДавлениеВетер, м/сВероятность осадков
    02:00Ясно и безоблачно+14°C31 %670 мм2.7 м/с2 %
    05:00Ясно и безоблачно+11°C40 %669 мм2.4 м/с2 %
    08:00Ясно и безоблачно+11°C39 %671 мм2.7 м/с2 %
    11:00Ясно и безоблачно+23°C18 %674 мм3.4 м/с2 %
    14:00Ясно и безоблачно+28°C13 %673 мм3.1 м/с2 %
    17:00Ясно и безоблачно+29°C11 %672 мм2.1 м/с2 %
    20:00Ясно и безоблачно+21°C17 %671 мм2.4 м/с2 %
    23:00Ясно и безоблачно+16°C23 %670 мм2.8 м/с2 %
  • 20июня
    Четверг
    +12°
    +31°
    Ясно и безоблачно
    ВремяПогодаТемператураВлажностьДавлениеВетер, м/сВероятность осадков
    02:00Ясно и безоблачно+15°C26 %670 мм3.1 м/с2 %
    05:00Ясно и безоблачно+13°C32 %669 мм3.5 м/с2 %
    08:00Ясно и безоблачно+12°C35 %671 мм4.3 м/с2 %
    11:00Ясно и безоблачно+24°C21 %674 мм4.9 м/с2 %
    14:00Ясно и безоблачно+29°C12 %673 мм3.5 м/с2 %
    17:00Ясно и безоблачно+30°C10 %672 мм2.0 м/с2 %
    20:00Ясно и безоблачно+22°C17 %671 мм2.7 м/с2 %
    23:00Ясно и безоблачно+18°C20 %671 мм3.4 м/с2 %
  • 21июня
    Пятница
    +12°
    +31°
    Ясно и безоблачно
    ВремяПогодаТемператураВлажностьДавлениеВетер, м/сВероятность осадков
    02:00Ясно и безоблачно+16°C25 %671 мм3.9 м/с2 %
    05:00Ясно и безоблачно+13°C29 %671 мм4.3 м/с2 %
    08:00Ясно и безоблачно+13°C31 %672 мм4.4 м/с2 %
    11:00Ясно и безоблачно+24°C19 %675 мм4.7 м/с2 %
    14:00Ясно и безоблачно+29°C11 %674 мм3.0 м/с2 %
    17:00Ясно и безоблачно+30°C10 %673 мм2.3 м/с2 %
    20:00Ясно и безоблачно+22°C16 %672 мм2.9 м/с2 %
    23:00Ясно и безоблачно+18°C18 %672 мм3.2 м/с2 %
Мы используем cookies
Соглашаюсь